Time;durP1;ratioP1;P1;durP2;ratioP2;P2;SDS_P1;SDS_P2;PMS_P1;PMS_P2;Temp;Humidity;BMP_temperature;BMP_pressure;BME280_temperature;BME280_humidity;BME280_pressure;Samples;Min_cycle;Max_cycle;Signal;HPM_P1;HPM_P2
2024/01/15 00:01:50;;;;;;;55.08;22.60;;;-3.90;99.90;;;;;;503013;236;27263;-65
2024/01/15 00:03:53;;;;;;;54.55;20.37;;;;;;;;;;503024;236;27203;-66
2024/01/15 00:05:54;;;;;;;59.53;24.23;;;-3.90;99.90;;;;;;502996;236;26692;-66
2024/01/15 00:07:55;;;;;;;48.10;20.55;;;-3.90;99.90;;;;;;503033;236;27067;-65
2024/01/15 00:09:56;;;;;;;53.45;20.95;;;-4.00;99.90;;;;;;503003;236;27126;-65
2024/01/15 00:11:59;;;;;;;64.10;22.83;;;;;;;;;;503041;236;27256;-65
2024/01/15 00:14:00;;;;;;;50.97;21.23;;;-4.00;99.90;;;;;;503002;236;26805;-65
2024/01/15 00:16:01;;;;;;;56.42;22.20;;;-4.00;99.90;;;;;;502990;236;27124;-65
2024/01/15 00:18:02;;;;;;;54.83;22.35;;;-4.00;99.90;;;;;;503016;236;27172;-65
2024/01/15 00:20:04;;;;;;;64.68;20.88;;;-3.90;99.90;;;;;;503049;236;27062;-66
2024/01/15 00:22:05;;;;;;;48.70;20.33;;;-3.90;99.90;;;;;;502989;236;27012;-65
2024/01/15 00:24:06;;;;;;;54.53;21.85;;;-3.90;99.90;;;;;;502993;236;27488;-65
2024/01/15 00:26:07;;;;;;;48.25;20.45;;;-3.80;99.90;;;;;;502950;236;27110;-65
2024/01/15 00:28:09;;;;;;;58.60;20.02;;;-3.80;99.90;;;;;;503036;236;27415;-65
2024/01/15 00:30:10;;;;;;;46.37;21.30;;;-3.80;99.90;;;;;;503044;236;27319;-66
2024/01/15 00:32:11;;;;;;;57.28;21.40;;;-3.80;99.90;;;;;;503010;236;27255;-65
2024/01/15 00:34:13;;;;;;;50.22;20.35;;;-3.90;99.90;;;;;;502979;236;27299;-65
2024/01/15 00:36:14;;;;;;;51.28;20.90;;;-3.80;99.90;;;;;;503061;236;27714;-66
2024/01/15 00:38:15;;;;;;;48.00;20.20;;;-3.80;99.90;;;;;;503046;236;27029;-65
2024/01/15 00:40:16;;;;;;;54.25;20.25;;;-3.80;99.90;;;;;;502892;236;27326;-65
2024/01/15 00:42:18;;;;;;;54.38;21.95;;;-3.80;99.90;;;;;;502949;236;27121;-65
2024/01/15 00:44:19;;;;;;;50.83;19.30;;;-3.80;99.90;;;;;;502970;236;27580;-65
2024/01/15 00:46:21;;;;;;;49.92;18.73;;;;;;;;;;503027;236;27759;-65
2024/01/15 00:48:23;;;;;;;48.80;19.45;;;-3.90;99.90;;;;;;502853;236;26821;-64
2024/01/15 00:50:24;;;;;;;51.33;21.35;;;-3.90;99.90;;;;;;502772;236;27543;-65
2024/01/15 00:52:25;;;;;;;55.08;21.25;;;-3.80;99.90;;;;;;502798;236;27767;-64
2024/01/15 00:54:26;;;;;;;54.63;20.00;;;-3.80;99.90;;;;;;502731;236;27328;-65
2024/01/15 00:56:28;;;;;;;42.47;18.75;;;-3.80;99.90;;;;;;502792;236;27247;-65
2024/01/15 00:58:30;;;;;;;50.58;19.35;;;;;;;;;;502998;236;27071;-65
2024/01/15 01:00:31;;;;;;;52.53;20.67;;;-3.80;99.90;;;;;;503039;236;27047;-65
2024/01/15 01:02:33;;;;;;;43.83;19.85;;;-3.80;99.90;;;;;;503013;236;27170;-65
2024/01/15 01:04:35;;;;;;;53.35;19.58;;;;;;;;;;502940;236;27051;-65
2024/01/15 01:06:37;;;;;;;48.95;19.27;;;;;;;;;;503040;236;28268;-65
2024/01/15 01:08:39;;;;;;;54.67;18.33;;;-3.80;99.90;;;;;;503018;236;26626;-65
2024/01/15 01:10:42;;;;;;;50.67;20.40;;;-3.80;99.90;;;;;;503000;236;27553;-65
2024/01/15 01:12:41;;;;;;;53.72;19.08;;;-3.80;99.90;;;;;;502859;236;28786;-65
2024/01/15 01:14:42;;;;;;;53.20;20.80;;;-3.80;99.90;;;;;;502920;236;27065;-65
2024/01/15 01:16:45;;;;;;;52.83;19.25;;;;;;;;;;502964;236;27034;-66
2024/01/15 01:18:46;;;;;;;50.67;18.83;;;-3.80;99.90;;;;;;503017;236;27817;-65
2024/01/15 01:20:49;;;;;;;46.05;18.35;;;;;;;;;;503019;236;27569;-65
2024/01/15 01:22:50;;;;;;;46.90;18.55;;;-3.80;99.90;;;;;;503013;236;26594;-65
2024/01/15 01:24:51;;;;;;;47.83;20.25;;;-3.70;99.90;;;;;;502973;236;27491;-65
2024/01/15 01:26:52;;;;;;;48.03;20.00;;;-3.70;99.90;;;;;;503057;236;27525;-66
2024/01/15 01:28:54;;;;;;;47.83;17.90;;;-3.70;99.90;;;;;;503024;236;27053;-65
2024/01/15 01:30:55;;;;;;;55.70;20.23;;;-3.70;99.90;;;;;;503030;236;27176;-65
2024/01/15 01:32:56;;;;;;;45.47;18.58;;;-3.70;99.90;;;;;;503005;236;27262;-65
2024/01/15 01:34:57;;;;;;;46.40;19.48;;;-3.70;99.90;;;;;;502929;236;27169;-65
2024/01/15 01:36:59;;;;;;;52.92;20.83;;;-3.70;99.90;;;;;;503034;236;27281;-65
2024/01/15 01:39:00;;;;;;;47.33;19.30;;;-3.70;99.90;;;;;;503012;236;27851;-65
2024/01/15 01:41:01;;;;;;;48.97;19.48;;;-3.70;99.90;;;;;;503011;236;27130;-65
2024/01/15 01:43:02;;;;;;;45.65;17.70;;;-3.70;99.90;;;;;;503011;236;27251;-65
2024/01/15 01:45:04;;;;;;;58.00;20.20;;;-3.70;99.90;;;;;;503007;236;27045;-65
2024/01/15 01:47:05;;;;;;;52.70;18.42;;;-3.70;99.90;;;;;;503038;236;27044;-65
2024/01/15 01:49:06;;;;;;;59.25;20.35;;;-3.70;99.90;;;;;;502996;236;27026;-65
2024/01/15 01:51:07;;;;;;;52.65;18.25;;;-3.70;99.90;;;;;;503002;236;27626;-65
2024/01/15 01:53:09;;;;;;;52.47;19.62;;;-3.70;99.90;;;;;;503018;236;27741;-65
2024/01/15 01:55:10;;;;;;;50.28;19.58;;;-3.70;99.90;;;;;;502927;236;27001;-65
2024/01/15 01:57:11;;;;;;;56.60;20.60;;;-3.70;99.90;;;;;;503020;236;27359;-65
2024/01/15 01:59:12;;;;;;;50.53;19.42;;;-3.70;99.90;;;;;;503013;236;27139;-65
2024/01/15 02:01:14;;;;;;;52.25;20.30;;;-3.70;99.90;;;;;;502996;236;27119;-65
2024/01/15 02:03:15;;;;;;;57.45;21.45;;;-3.70;99.90;;;;;;503035;236;27518;-66
2024/01/15 02:05:16;;;;;;;57.17;18.95;;;-3.70;99.90;;;;;;502884;236;28510;-65
2024/01/15 02:07:18;;;;;;;47.97;18.80;;;-3.70;99.90;;;;;;502993;236;27266;-65
2024/01/15 02:09:19;;;;;;;56.00;20.55;;;-3.60;99.90;;;;;;502973;236;27148;-65
2024/01/15 02:11:20;;;;;;;52.75;20.05;;;-3.60;99.90;;;;;;503025;236;27032;-65
2024/01/15 02:13:21;;;;;;;57.70;20.73;;;-3.60;99.90;;;;;;503038;236;27063;-65
2024/01/15 02:15:23;;;;;;;56.22;19.62;;;-3.50;99.90;;;;;;502923;236;27232;-65
2024/01/15 02:17:24;;;;;;;59.05;21.40;;;-3.60;99.90;;;;;;503019;236;27767;-65
2024/01/15 02:19:25;;;;;;;53.08;18.23;;;-3.60;99.90;;;;;;503015;236;27428;-66
2024/01/15 02:21:28;;;;;;;62.25;21.98;;;-3.50;99.90;;;;;;503016;236;27334;-65
2024/01/15 02:23:28;;;;;;;59.85;19.77;;;-3.50;99.90;;;;;;502890;236;27485;-65
2024/01/15 02:25:29;;;;;;;56.75;19.62;;;-3.50;99.90;;;;;;502925;236;27123;-64
2024/01/15 02:27:30;;;;;;;53.63;19.95;;;-3.50;99.90;;;;;;503043;236;27314;-65
2024/01/15 02:29:31;;;;;;;59.83;20.45;;;-3.50;99.90;;;;;;503086;236;27823;-66
2024/01/15 02:31:33;;;;;;;51.80;18.83;;;-3.50;99.90;;;;;;503052;236;27864;-65
2024/01/15 02:33:34;;;;;;;51.33;20.37;;;-3.50;99.90;;;;;;503079;236;27247;-64
2024/01/15 02:35:38;;;;;;;58.90;20.48;;;-3.50;99.90;;;;;;503026;236;27034;-64
2024/01/15 02:37:39;;;;;;;60.83;20.50;;;-3.50;99.90;;;;;;503083;236;27507;-67
2024/01/15 02:39:41;;;;;;;50.92;20.67;;;-3.50;99.90;;;;;;502982;236;27283;-66
2024/01/15 02:41:42;;;;;;;59.70;19.33;;;-3.40;99.90;;;;;;503047;236;27530;-65
2024/01/15 02:43:43;;;;;;;58.10;20.08;;;-3.50;99.90;;;;;;503025;236;27249;-65
2024/01/15 02:45:44;;;;;;;60.67;19.87;;;-3.40;99.90;;;;;;503030;236;27590;-64
2024/01/15 02:47:46;;;;;;;53.50;20.67;;;-3.40;99.90;;;;;;503053;236;28869;-65
2024/01/15 02:49:47;;;;;;;51.05;19.52;;;-3.50;99.90;;;;;;503011;236;27201;-65
2024/01/15 02:51:48;;;;;;;53.15;19.30;;;-3.40;99.90;;;;;;503014;236;27250;-65
2024/01/15 02:53:49;;;;;;;50.70;19.27;;;-3.40;99.90;;;;;;502967;236;27281;-65
2024/01/15 02:55:51;;;;;;;46.03;18.80;;;-3.40;99.90;;;;;;502997;236;27348;-65
2024/01/15 02:57:52;;;;;;;54.50;19.62;;;-3.30;99.90;;;;;;503051;236;27358;-66
2024/01/15 02:59:53;;;;;;;54.67;20.00;;;-3.30;99.90;;;;;;503018;236;28049;-65
2024/01/15 03:01:54;;;;;;;55.08;19.15;;;-3.30;99.90;;;;;;502991;236;27366;-65
2024/01/15 03:03:57;;;;;;;53.65;18.90;;;-3.30;99.90;;;;;;503072;236;27241;-67
2024/01/15 03:05:57;;;;;;;49.50;17.65;;;-3.40;99.90;;;;;;502783;236;27235;-65
2024/01/15 03:07:58;;;;;;;54.03;21.70;;;-3.40;99.90;;;;;;503023;236;27375;-65
2024/01/15 03:10:00;;;;;;;60.55;20.08;;;-3.40;99.90;;;;;;503001;236;27200;-65
2024/01/15 03:12:01;;;;;;;50.12;18.67;;;-3.50;99.90;;;;;;503062;236;27859;-65
2024/01/15 03:14:02;;;;;;;61.10;21.37;;;-3.50;99.90;;;;;;503029;236;27941;-65
2024/01/15 03:16:03;;;;;;;52.17;19.17;;;-3.40;99.90;;;;;;502924;236;27360;-65
2024/01/15 03:18:05;;;;;;;47.45;18.77;;;-3.40;99.90;;;;;;502987;236;27230;-65
2024/01/15 03:20:06;;;;;;;48.45;18.58;;;-3.40;99.90;;;;;;503041;236;27282;-64
2024/01/15 03:22:08;;;;;;;54.08;18.45;;;-3.30;99.90;;;;;;503030;236;27422;-65
2024/01/15 03:24:08;;;;;;;49.50;19.45;;;-3.30;99.90;;;;;;502977;236;27727;-65
2024/01/15 03:26:10;;;;;;;59.67;21.45;;;-3.30;99.90;;;;;;502971;236;27701;-65
2024/01/15 03:28:11;;;;;;;51.13;18.73;;;-3.30;99.90;;;;;;503026;236;27260;-65
2024/01/15 03:30:12;;;;;;;50.65;20.17;;;-3.30;99.90;;;;;;503070;236;27363;-67
2024/01/15 03:32:15;;;;;;;58.22;20.62;;;-3.30;99.90;;;;;;503035;236;27276;-65
2024/01/15 03:34:15;;;;;;;61.88;21.50;;;-3.30;99.90;;;;;;502850;236;27369;-65
2024/01/15 03:36:16;;;;;;;56.28;19.20;;;-3.30;99.90;;;;;;502931;236;28629;-65
2024/01/15 03:38:17;;;;;;;57.62;20.65;;;-3.30;99.90;;;;;;503025;236;28872;-65
2024/01/15 03:40:18;;;;;;;60.45;19.77;;;-3.30;99.90;;;;;;502926;236;27346;-66
2024/01/15 03:42:21;;;;;;;49.65;18.92;;;;;;;;;;503017;236;27238;-65
2024/01/15 03:44:22;;;;;;;49.28;19.60;;;-3.20;99.90;;;;;;502969;236;27831;-65
2024/01/15 03:46:23;;;;;;;49.65;19.62;;;-3.20;99.90;;;;;;503043;236;27399;-65
2024/01/15 03:48:25;;;;;;;52.00;20.73;;;-3.20;99.90;;;;;;503025;236;27378;-66
2024/01/15 03:50:26;;;;;;;44.13;18.05;;;-3.20;99.90;;;;;;503026;236;27331;-65
2024/01/15 03:52:27;;;;;;;49.25;19.17;;;-3.20;99.90;;;;;;502982;236;27182;-65
2024/01/15 03:54:28;;;;;;;44.95;17.77;;;-3.20;99.90;;;;;;503011;236;27493;-67
2024/01/15 03:56:30;;;;;;;47.72;17.98;;;-3.20;99.90;;;;;;503051;236;27770;-65
2024/01/15 03:58:31;;;;;;;46.78;18.25;;;-3.20;99.90;;;;;;503017;236;27945;-66
2024/01/15 04:00:32;;;;;;;50.25;18.15;;;-3.20;99.90;;;;;;503000;236;27439;-65
2024/01/15 04:02:33;;;;;;;39.47;16.98;;;-3.20;99.90;;;;;;503037;236;27491;-65
2024/01/15 04:04:35;;;;;;;44.40;18.25;;;-3.10;99.90;;;;;;502980;236;27491;-66
2024/01/15 04:06:36;;;;;;;39.63;16.50;;;-3.20;99.90;;;;;;503027;236;27356;-65
2024/01/15 04:08:37;;;;;;;40.58;16.23;;;-3.10;99.90;;;;;;502985;236;27579;-66
2024/01/15 04:10:39;;;;;;;45.17;17.25;;;-3.10;99.90;;;;;;502968;236;27388;-66
2024/01/15 04:12:40;;;;;;;36.90;16.42;;;-3.10;99.90;;;;;;503043;236;27470;-65
2024/01/15 04:14:41;;;;;;;44.75;17.75;;;-3.10;99.90;;;;;;503009;236;27832;-65
2024/01/15 04:16:42;;;;;;;39.55;17.85;;;-3.10;99.90;;;;;;503020;236;27757;-65
2024/01/15 04:18:44;;;;;;;50.33;18.45;;;-3.00;99.90;;;;;;502987;236;27497;-65
2024/01/15 04:20:45;;;;;;;42.53;17.70;;;-3.00;99.90;;;;;;503046;236;27355;-66
2024/01/15 04:22:46;;;;;;;44.05;18.37;;;-3.00;99.90;;;;;;503013;236;27485;-65
2024/01/15 04:24:47;;;;;;;38.97;17.50;;;-3.00;99.90;;;;;;502976;236;27484;-66
2024/01/15 04:26:49;;;;;;;42.58;17.67;;;-3.10;99.90;;;;;;502966;236;27491;-65
2024/01/15 04:28:50;;;;;;;42.38;18.48;;;-3.00;99.90;;;;;;503046;236;27579;-65
2024/01/15 04:30:51;;;;;;;36.47;15.93;;;-3.00;99.90;;;;;;503043;236;27853;-66
2024/01/15 04:32:52;;;;;;;37.83;16.42;;;-3.00;99.90;;;;;;503026;236;27900;-65
2024/01/15 04:34:54;;;;;;;37.83;17.62;;;-3.00;99.90;;;;;;502974;236;27490;-65
2024/01/15 04:36:56;;;;;;;49.35;17.52;;;-3.00;99.90;;;;;;503040;236;27507;-66
2024/01/15 04:38:57;;;;;;;48.10;18.67;;;-2.90;99.90;;;;;;503052;236;27521;-65
2024/01/15 04:40:58;;;;;;;33.35;16.00;;;-3.00;99.90;;;;;;503042;236;27864;-65
2024/01/15 04:43:00;;;;;;;45.15;18.45;;;-3.00;99.90;;;;;;503011;236;27955;-66
2024/01/15 04:45:01;;;;;;;40.70;17.62;;;-3.00;99.90;;;;;;502937;236;27539;-65
2024/01/15 04:47:02;;;;;;;40.85;18.50;;;-3.00;99.90;;;;;;503062;236;27436;-66
2024/01/15 04:49:04;;;;;;;39.88;17.75;;;-3.00;99.90;;;;;;503042;236;27501;-65
2024/01/15 04:51:05;;;;;;;43.95;18.77;;;-2.90;99.90;;;;;;502992;236;27508;-65
2024/01/15 04:53:06;;;;;;;44.72;19.75;;;-2.90;99.90;;;;;;502980;236;27517;-65
2024/01/15 04:55:07;;;;;;;46.13;18.58;;;-2.90;99.90;;;;;;503009;236;27482;-67
2024/01/15 04:57:09;;;;;;;44.72;19.27;;;-2.90;99.90;;;;;;502872;236;27770;-65
2024/01/15 04:59:10;;;;;;;39.35;17.73;;;-2.90;99.90;;;;;;503046;236;29037;-65
2024/01/15 05:01:11;;;;;;;48.13;19.60;;;-2.90;99.90;;;;;;502995;236;27352;-65
2024/01/15 05:03:12;;;;;;;49.33;19.25;;;-2.90;99.90;;;;;;503060;236;27458;-65
2024/01/15 05:05:14;;;;;;;51.83;20.58;;;-2.90;99.90;;;;;;502964;236;27916;-65
2024/01/15 05:07:15;;;;;;;55.12;20.42;;;-2.90;99.90;;;;;;503028;236;27552;-65
2024/01/15 05:09:17;;;;;;;50.40;20.83;;;-2.90;99.90;;;;;;502984;236;27503;-65
2024/01/15 05:11:17;;;;;;;50.88;19.62;;;-2.90;99.90;;;;;;502967;236;28039;-65
2024/01/15 05:13:19;;;;;;;52.70;20.60;;;-2.80;99.90;;;;;;503058;236;27438;-65
2024/01/15 05:15:20;;;;;;;48.45;19.92;;;-2.80;99.90;;;;;;502979;236;27557;-65
2024/01/15 05:17:21;;;;;;;48.00;19.30;;;-2.90;99.90;;;;;;503024;236;27445;-65
2024/01/15 05:19:22;;;;;;;51.63;21.98;;;-2.90;99.90;;;;;;502952;236;27525;-65
2024/01/15 05:21:24;;;;;;;52.08;22.92;;;-2.80;99.90;;;;;;503008;236;27510;-67
2024/01/15 05:23:25;;;;;;;46.00;20.00;;;-2.90;99.90;;;;;;503035;236;27992;-65
2024/01/15 05:25:26;;;;;;;44.88;18.65;;;-2.80;99.90;;;;;;502987;236;27957;-65
2024/01/15 05:27:28;;;;;;;48.35;19.90;;;-2.80;99.90;;;;;;503005;236;27450;-65
2024/01/15 05:29:29;;;;;;;53.83;21.73;;;-2.80;99.90;;;;;;503024;236;27439;-65
2024/01/15 05:31:30;;;;;;;55.20;21.75;;;-2.70;99.90;;;;;;503071;236;27484;-66
2024/01/15 05:33:31;;;;;;;55.28;20.77;;;-2.70;99.90;;;;;;503051;236;27335;-65
2024/01/15 05:35:33;;;;;;;51.45;22.13;;;-2.70;99.90;;;;;;502943;236;27926;-66
2024/01/15 05:37:34;;;;;;;47.42;20.75;;;-2.80;99.90;;;;;;503057;236;28068;-66
2024/01/15 05:39:35;;;;;;;45.78;20.60;;;-2.70;99.90;;;;;;503045;236;27482;-65
2024/01/15 05:41:36;;;;;;;53.70;21.75;;;-2.70;99.90;;;;;;503014;236;27474;-66
2024/01/15 05:43:38;;;;;;;51.35;20.55;;;-2.70;99.90;;;;;;503005;236;27577;-65
2024/01/15 05:45:39;;;;;;;53.87;20.95;;;-2.70;99.90;;;;;;502954;236;27579;-65
2024/01/15 05:47:40;;;;;;;54.25;23.02;;;-2.70;99.90;;;;;;503031;236;27978;-67
2024/01/15 05:49:41;;;;;;;51.22;22.27;;;-2.70;99.90;;;;;;503038;236;29082;-65
2024/01/15 05:51:43;;;;;;;55.22;21.70;;;-2.70;99.90;;;;;;503030;236;27492;-66
2024/01/15 05:53:44;;;;;;;50.28;21.67;;;-2.70;99.90;;;;;;503004;236;27485;-65
2024/01/15 05:55:45;;;;;;;60.97;23.62;;;-2.70;99.90;;;;;;503019;236;27351;-65
2024/01/15 05:57:46;;;;;;;58.50;22.83;;;-2.70;99.90;;;;;;503027;236;27609;-66
2024/01/15 05:59:48;;;;;;;57.55;22.73;;;-2.70;99.90;;;;;;503016;236;27449;-65
2024/01/15 06:01:49;;;;;;;51.63;22.13;;;-2.60;99.90;;;;;;502984;236;27982;-65
2024/01/15 06:03:50;;;;;;;53.80;23.92;;;-2.60;99.90;;;;;;503021;236;28135;-72
2024/01/15 06:05:51;;;;;;;57.17;22.48;;;-2.60;99.90;;;;;;503014;236;27540;-65
2024/01/15 06:07:53;;;;;;;56.80;23.73;;;-2.60;99.90;;;;;;503020;236;27466;-65
2024/01/15 06:09:54;;;;;;;50.33;22.17;;;-2.60;99.90;;;;;;502986;236;27505;-65
2024/01/15 06:11:55;;;;;;;57.62;23.60;;;-2.60;99.90;;;;;;502988;236;27370;-65
2024/01/15 06:13:56;;;;;;;57.50;23.33;;;-2.50;99.90;;;;;;503041;236;27941;-66
2024/01/15 06:15:58;;;;;;;55.30;23.40;;;-2.50;99.90;;;;;;502967;236;29001;-65
2024/01/15 06:17:59;;;;;;;50.38;21.23;;;-2.60;99.90;;;;;;502988;236;27558;-66
2024/01/15 06:20:00;;;;;;;46.72;20.70;;;-2.50;99.90;;;;;;502946;236;27438;-65
2024/01/15 06:22:02;;;;;;;47.25;21.70;;;-2.50;99.90;;;;;;503017;236;27457;-65
2024/01/15 06:24:03;;;;;;;55.53;22.95;;;-2.60;99.90;;;;;;503038;236;27502;-66
2024/01/15 06:26:04;;;;;;;45.00;20.65;;;-2.60;99.90;;;;;;502951;236;27962;-65
2024/01/15 06:28:05;;;;;;;55.40;23.67;;;-2.60;99.90;;;;;;502992;236;29107;-66
2024/01/15 06:30:07;;;;;;;51.45;22.23;;;-2.50;99.90;;;;;;503032;236;27493;-66
2024/01/15 06:32:08;;;;;;;47.95;21.80;;;-2.50;99.90;;;;;;503026;236;27463;-65
2024/01/15 06:34:09;;;;;;;41.40;20.52;;;-2.50;99.90;;;;;;502998;236;27587;-65
2024/01/15 06:36:10;;;;;;;42.90;21.87;;;-2.50;99.90;;;;;;502939;236;27445;-65
2024/01/15 06:38:12;;;;;;;52.90;24.02;;;-2.50;99.90;;;;;;502943;236;27544;-65
2024/01/15 06:40:13;;;;;;;50.70;22.85;;;-2.50;99.90;;;;;;503016;236;28009;-66
2024/01/15 06:42:14;;;;;;;53.95;23.25;;;-2.50;99.90;;;;;;502706;236;27489;-65
2024/01/15 06:44:15;;;;;;;48.22;20.70;;;-2.50;99.90;;;;;;502821;236;27560;-65
2024/01/15 06:46:17;;;;;;;52.10;23.65;;;-2.50;99.90;;;;;;502995;236;27522;-65
2024/01/15 06:48:18;;;;;;;45.00;21.37;;;-2.50;99.90;;;;;;503020;236;27469;-65
2024/01/15 06:50:19;;;;;;;49.65;22.35;;;-2.50;99.90;;;;;;503020;236;27563;-65
2024/01/15 06:52:20;;;;;;;48.17;22.55;;;-2.50;99.90;;;;;;502974;236;27882;-66
2024/01/15 06:54:23;;;;;;;46.13;21.77;;;-2.40;99.90;;;;;;502936;236;29159;-65
2024/01/15 06:56:23;;;;;;;47.47;21.92;;;-2.40;99.90;;;;;;502999;236;27500;-66
2024/01/15 06:58:24;;;;;;;43.08;20.92;;;-2.40;99.90;;;;;;502987;236;27477;-65
2024/01/15 07:00:25;;;;;;;51.90;22.30;;;-2.40;99.90;;;;;;502978;236;27467;-65
2024/01/15 07:02:27;;;;;;;45.65;21.83;;;-2.40;99.90;;;;;;502979;236;27462;-65
2024/01/15 07:04:28;;;;;;;48.05;22.83;;;-2.40;99.90;;;;;;502922;236;27936;-65
2024/01/15 07:06:30;;;;;;;46.70;21.80;;;-2.40;99.90;;;;;;502960;236;29026;-67
2024/01/15 07:08:31;;;;;;;46.67;22.58;;;-2.40;99.90;;;;;;502930;236;27551;-65
2024/01/15 07:10:32;;;;;;;47.33;20.80;;;-2.40;99.90;;;;;;502935;236;27596;-65
2024/01/15 07:12:33;;;;;;;44.13;21.05;;;-2.40;99.90;;;;;;502949;236;27513;-65
2024/01/15 07:14:35;;;;;;;48.35;22.55;;;-2.30;99.90;;;;;;502878;236;27515;-65
2024/01/15 07:16:36;;;;;;;43.38;21.12;;;-2.30;99.90;;;;;;502982;236;27512;-65
2024/01/15 07:18:37;;;;;;;48.08;21.77;;;-2.30;99.90;;;;;;502994;236;27894;-65
2024/01/15 07:20:38;;;;;;;46.08;23.12;;;-2.30;99.90;;;;;;502946;236;27506;-65
2024/01/15 07:22:39;;;;;;;44.38;22.85;;;-2.30;99.90;;;;;;503077;236;27492;-67
2024/01/15 07:24:41;;;;;;;46.78;22.00;;;-2.30;99.90;;;;;;502953;236;27512;-66
2024/01/15 07:26:42;;;;;;;46.95;21.25;;;-2.30;99.90;;;;;;502993;236;27505;-65
2024/01/15 07:28:43;;;;;;;44.53;22.33;;;-2.30;99.90;;;;;;503013;236;27569;-65
2024/01/15 07:30:44;;;;;;;50.78;23.35;;;-2.30;99.90;;;;;;503061;236;27941;-65
2024/01/15 07:32:46;;;;;;;46.22;19.80;;;-2.30;99.90;;;;;;503022;236;29017;-65
2024/01/15 07:34:47;;;;;;;41.85;20.98;;;-2.20;99.90;;;;;;502986;236;27431;-65
2024/01/15 07:36:48;;;;;;;43.28;21.67;;;-2.20;99.90;;;;;;503037;236;27470;-66
2024/01/15 07:38:49;;;;;;;51.10;24.15;;;-2.20;99.90;;;;;;503010;236;27461;-65
2024/01/15 07:40:51;;;;;;;49.90;21.50;;;-2.10;99.90;;;;;;503044;236;27541;-65
2024/01/15 07:42:52;;;;;;;51.40;23.00;;;-2.20;99.90;;;;;;503028;236;28001;-65
2024/01/15 07:44:53;;;;;;;42.85;22.23;;;-2.20;99.90;;;;;;502984;236;27901;-65
2024/01/15 07:46:54;;;;;;;40.65;21.62;;;-2.20;99.90;;;;;;502841;236;27478;-66
2024/01/15 07:48:59;;;;;;;46.22;21.45;;;-2.10;99.90;;;;;;503042;236;27485;-66
2024/01/15 07:51:00;;;;;;;44.67;21.98;;;-2.10;99.90;;;;;;503020;236;27501;-65
2024/01/15 07:53:01;;;;;;;43.00;19.77;;;-2.10;99.90;;;;;;503003;236;27441;-65
2024/01/15 07:55:06;;;;;;;43.58;21.98;;;-2.10;99.90;;;;;;503007;236;27436;-65
2024/01/15 07:57:04;;;;;;;43.65;20.12;;;-2.00;99.90;;;;;;502780;236;27957;-66
2024/01/15 07:59:05;;;;;;;45.47;20.30;;;-2.00;99.90;;;;;;503037;236;27943;-65
2024/01/15 08:01:06;;;;;;;37.08;18.05;;;-2.00;99.90;;;;;;502988;236;27471;-65
2024/01/15 08:03:08;;;;;;;39.55;21.37;;;-1.90;99.90;;;;;;503028;236;28141;-65
2024/01/15 08:05:09;;;;;;;39.50;21.12;;;-2.00;99.90;;;;;;503003;236;27455;-65
2024/01/15 08:07:10;;;;;;;44.85;20.83;;;-1.90;99.90;;;;;;503036;236;27482;-66
2024/01/15 08:09:12;;;;;;;43.85;21.80;;;-2.00;99.90;;;;;;503022;236;27445;-65
2024/01/15 08:11:13;;;;;;;47.30;19.83;;;-1.90;99.90;;;;;;503025;236;27520;-65
2024/01/15 08:13:14;;;;;;;51.70;23.52;;;-1.90;99.90;;;;;;502958;236;28065;-67
2024/01/15 08:15:15;;;;;;;53.67;22.80;;;-2.00;99.90;;;;;;503002;236;27943;-65
2024/01/15 08:17:17;;;;;;;45.10;23.12;;;-1.90;99.90;;;;;;503015;236;27478;-65
2024/01/15 08:19:19;;;;;;;46.85;22.67;;;-1.90;99.90;;;;;;503022;236;27443;-65
2024/01/15 08:21:19;;;;;;;50.45;22.62;;;-1.90;99.90;;;;;;502959;236;27454;-65
2024/01/15 08:23:21;;;;;;;49.90;22.85;;;-1.90;99.90;;;;;;503069;236;27509;-66
2024/01/15 08:25:22;;;;;;;51.70;23.27;;;-1.90;99.90;;;;;;502962;236;27493;-65
2024/01/15 08:27:23;;;;;;;48.38;23.02;;;-1.90;99.90;;;;;;503003;236;28051;-65
2024/01/15 08:29:24;;;;;;;48.45;21.45;;;-1.90;99.90;;;;;;502975;236;29234;-65
2024/01/15 08:31:25;;;;;;;49.97;23.87;;;-1.90;99.90;;;;;;503012;236;27472;-66
2024/01/15 08:33:27;;;;;;;54.22;22.95;;;-2.00;99.90;;;;;;503039;236;27475;-66
2024/01/15 08:35:28;;;;;;;43.97;21.55;;;-1.90;99.90;;;;;;502962;236;27468;-65
2024/01/15 08:37:29;;;;;;;47.97;21.30;;;-1.90;99.90;;;;;;502958;236;27481;-65
2024/01/15 08:39:30;;;;;;;47.30;22.25;;;-1.90;99.90;;;;;;502977;236;28049;-66
2024/01/15 08:41:32;;;;;;;40.05;20.33;;;-1.90;99.90;;;;;;502793;236;27903;-65
2024/01/15 08:43:33;;;;;;;49.90;23.30;;;-1.80;99.90;;;;;;502782;236;27503;-65
2024/01/15 08:45:34;;;;;;;39.15;19.80;;;-1.80;99.90;;;;;;502650;236;27482;-65
2024/01/15 08:47:35;;;;;;;44.05;22.33;;;-1.80;99.90;;;;;;502876;236;27486;-65
2024/01/15 08:49:37;;;;;;;44.78;22.10;;;-1.70;99.90;;;;;;503024;236;27571;-66
2024/01/15 08:51:39;;;;;;;40.08;20.60;;;-1.70;99.90;;;;;;502999;236;27984;-65
2024/01/15 08:53:39;;;;;;;45.53;21.25;;;-1.70;99.90;;;;;;502990;236;27889;-66
2024/01/15 08:55:42;;;;;;;48.45;24.10;;;-1.70;99.90;;;;;;502990;236;27483;-66
2024/01/15 08:57:43;;;;;;;40.75;19.90;;;-1.70;99.90;;;;;;502955;236;27449;-65
2024/01/15 08:59:43;;;;;;;38.03;18.52;;;-1.60;99.90;;;;;;502957;236;27466;-65
2024/01/15 09:01:44;;;;;;;33.38;18.35;;;-1.60;99.90;;;;;;503006;236;27450;-65
2024/01/15 09:03:48;;;;;;;39.50;18.10;;;-1.60;99.90;;;;;;503030;236;27496;-65
2024/01/15 09:05:48;;;;;;;33.97;17.20;;;-1.60;99.90;;;;;;502757;236;28757;-66
2024/01/15 09:07:48;;;;;;;34.35;17.52;;;-1.60;99.90;;;;;;502928;236;27497;-66
2024/01/15 09:09:49;;;;;;;44.97;21.60;;;-1.60;99.90;;;;;;502937;236;27502;-65
2024/01/15 09:11:51;;;;;;;35.58;17.85;;;-1.60;99.90;;;;;;503009;236;27490;-66
2024/01/15 09:13:52;;;;;;;36.95;18.75;;;-1.50;99.90;;;;;;503033;236;27466;-66
2024/01/15 09:15:53;;;;;;;38.80;18.17;;;-1.50;99.90;;;;;;502980;236;27486;-66
2024/01/15 09:17:54;;;;;;;32.70;18.05;;;-1.50;99.90;;;;;;503008;236;27989;-65
2024/01/15 09:19:56;;;;;;;37.65;18.92;;;-1.60;99.90;;;;;;502992;236;29139;-65
2024/01/15 09:21:57;;;;;;;37.42;18.80;;;-1.50;99.90;;;;;;503055;236;27462;-67
2024/01/15 09:23:58;;;;;;;34.60;18.85;;;-1.50;99.90;;;;;;503019;236;27531;-65
2024/01/15 09:25:59;;;;;;;37.92;18.02;;;-1.50;99.90;;;;;;502939;236;27480;-65
2024/01/15 09:28:01;;;;;;;36.40;18.17;;;-1.50;99.90;;;;;;502994;236;27450;-65
2024/01/15 09:30:02;;;;;;;35.10;18.67;;;-1.40;99.90;;;;;;503042;236;27900;-66
2024/01/15 09:32:04;;;;;;;37.42;18.40;;;-1.30;99.90;;;;;;503043;236;27956;-67
2024/01/15 09:34:04;;;;;;;29.70;15.65;;;-1.30;99.90;;;;;;503036;236;27441;-65
2024/01/15 09:36:06;;;;;;;30.02;17.12;;;-1.30;99.90;;;;;;502882;236;27474;-65
2024/01/15 09:38:07;;;;;;;30.60;16.87;;;-1.30;99.90;;;;;;503052;236;27471;-65
2024/01/15 09:40:08;;;;;;;33.72;18.48;;;-1.20;99.90;;;;;;503071;236;27535;-65
2024/01/15 09:42:10;;;;;;;29.58;16.30;;;-1.20;99.90;;;;;;503014;236;27482;-66
2024/01/15 09:44:11;;;;;;;35.33;16.83;;;-1.10;99.90;;;;;;502985;236;27908;-65
2024/01/15 09:46:13;;;;;;;33.55;17.20;;;-1.20;99.90;;;;;;502644;236;29119;-65
2024/01/15 09:48:13;;;;;;;31.37;15.88;;;-1.20;99.90;;;;;;503008;236;27478;-66
2024/01/15 09:50:15;;;;;;;32.58;16.52;;;-1.20;99.90;;;;;;503019;236;27451;-65
2024/01/15 09:52:17;;;;;;;33.65;18.33;;;-1.20;99.90;;;;;;503016;236;27638;-65
2024/01/15 09:54:17;;;;;;;32.97;17.48;;;-1.20;99.90;;;;;;502968;236;27888;-65
2024/01/15 09:56:18;;;;;;;33.03;17.67;;;-1.20;99.90;;;;;;503074;236;27985;-65
2024/01/15 09:58:20;;;;;;;31.23;16.62;;;-1.10;99.90;;;;;;503021;236;27982;-66
2024/01/15 10:00:21;;;;;;;28.05;15.52;;;-1.10;99.90;;;;;;503016;236;27527;-65
2024/01/15 10:02:22;;;;;;;31.12;16.12;;;-1.20;99.90;;;;;;502988;236;27473;-66
2024/01/15 10:04:25;;;;;;;34.17;17.50;;;-1.10;99.90;;;;;;503008;236;27569;-66
2024/01/15 10:06:27;;;;;;;30.23;16.27;;;-1.10;99.90;;;;;;502921;236;27529;-65
2024/01/15 10:08:27;;;;;;;28.45;16.08;;;-1.10;99.90;;;;;;502926;236;27898;-65
2024/01/15 10:10:28;;;;;;;29.65;14.90;;;-1.00;99.90;;;;;;503030;236;29083;-65
2024/01/15 10:12:30;;;;;;;27.60;15.30;;;-1.00;99.90;;;;;;503022;236;27548;-66
2024/01/15 10:14:32;;;;;;;30.77;16.92;;;-0.90;99.90;;;;;;502916;236;27479;-66
2024/01/15 10:16:32;;;;;;;26.30;15.07;;;-0.90;99.90;;;;;;502933;236;27498;-66
2024/01/15 10:18:33;;;;;;;25.77;14.75;;;-0.90;99.90;;;;;;503015;236;27873;-66